Time;durP1;ratioP1;P1;durP2;ratioP2;P2;SDS_P1;SDS_P2;PMS_P1;PMS_P2;Temp;Humidity;BMP_temperature;BMP_pressure;BME280_temperature;BME280_humidity;BME280_pressure;Samples;Min_cycle;Max_cycle;Signal;HPM_P1;HPM_P2
2023/09/09 00:02:40;;;;;;;0.00;0.00;;;;;;;16.89;100.00;96714.75;5110964;27;20047;-78
2023/09/09 00:05:29;;;;;;;0.00;0.00;;;;;;;16.76;100.00;96712.69;5111352;27;20597;-78
2023/09/09 00:08:16;;;;;;;0.00;0.00;;;;;;;16.71;100.00;96705.41;5109436;27;20244;-79
2023/09/09 00:11:02;;;;;;;0.10;0.10;;;;;;;16.65;100.00;96716.50;5108029;27;20042;-78
2023/09/09 00:13:48;;;;;;;0.03;0.03;;;;;;;16.53;100.00;96713.34;5108453;27;20103;-79
2023/09/09 00:16:34;;;;;;;0.00;0.00;;;;;;;16.60;100.00;96705.75;5110165;27;20107;-78
2023/09/09 00:19:21;;;;;;;0.03;0.03;;;;;;;16.52;100.00;96693.66;5108736;27;20035;-79
2023/09/09 00:22:07;;;;;;;0.00;0.00;;;;;;;16.48;100.00;96713.38;5109218;27;20267;-79
2023/09/09 00:24:53;;;;;;;0.10;0.10;;;;;;;16.43;100.00;96709.63;5108621;27;20057;-79
2023/09/09 00:27:39;;;;;;;0.00;0.00;;;;;;;16.41;100.00;96705.59;5110919;27;20099;-79
2023/09/09 00:30:24;;;;;;;0.00;0.00;;;;;;;16.38;100.00;96706.97;5091659;27;22626;-78
2023/09/09 00:33:10;;;;;;;0.10;0.10;;;;;;;16.27;100.00;96705.41;5108740;27;20813;-79
2023/09/09 00:36:00;;;;;;;0.00;0.00;;;;;;;16.25;100.00;96698.66;5110049;27;20035;-78
2023/09/09 00:38:46;;;;;;;0.00;0.00;;;;;;;16.27;100.00;96697.31;5094547;27;20059;-79
2023/09/09 00:41:32;;;;;;;0.00;0.00;;;;;;;16.30;100.00;96704.84;5096802;27;20039;-78
2023/09/09 00:44:18;;;;;;;0.00;0.00;;;;;;;16.23;100.00;96695.44;5094977;27;20061;-79
2023/09/09 00:47:04;;;;;;;0.00;0.00;;;;;;;16.29;100.00;96695.13;5108964;27;20492;-79
2023/09/09 00:49:51;;;;;;;0.00;0.00;;;;;;;16.39;100.00;96695.06;5104680;27;20046;-79
2023/09/09 00:52:37;;;;;;;0.00;0.00;;;;;;;16.35;100.00;96696.72;5108909;27;20086;-79
2023/09/09 00:55:27;;;;;;;0.00;0.00;;;;;;;16.18;100.00;96688.16;5110109;27;20074;-79
2023/09/09 00:58:12;;;;;;;0.00;0.00;;;;;;;16.27;100.00;96678.41;5105521;27;20504;-79
2023/09/09 01:01:03;;;;;;;0.00;0.00;;;;;;;16.26;100.00;96684.88;5095121;28;20050;-79
2023/09/09 01:03:52;;;;;;;0.00;0.00;;;;;;;16.26;100.00;96686.75;5105439;28;20046;-78
2023/09/09 01:06:40;;;;;;;0.10;0.10;;;;;;;16.28;100.00;96680.03;5108051;28;20141;-79
2023/09/09 01:09:26;;;;;;;0.00;0.00;;;;;;;16.36;100.00;96676.72;5109898;28;20035;-78
2023/09/09 01:12:12;;;;;;;0.00;0.00;;;;;;;16.38;100.00;96685.34;5096740;28;20320;-80
2023/09/09 01:14:59;;;;;;;0.00;0.00;;;;;;;16.12;100.00;96675.81;5109371;28;20039;-80
2023/09/09 01:17:45;;;;;;;0.00;0.00;;;;;;;16.18;100.00;96682.75;5092567;28;20039;-80
2023/09/09 01:20:35;;;;;;;0.00;0.00;;;;;;;16.20;100.00;96677.91;5096613;28;20046;-81
2023/09/09 01:23:21;;;;;;;0.00;0.00;;;;;;;16.24;100.00;96678.94;5108798;28;20540;-80
2023/09/09 01:26:07;;;;;;;0.00;0.00;;;;;;;16.19;100.00;96683.59;5094105;28;20049;-80
2023/09/09 01:28:53;;;;;;;0.00;0.00;;;;;;;16.21;100.00;96676.00;5092783;28;20043;-80
2023/09/09 01:31:40;;;;;;;0.00;0.00;;;;;;;16.16;100.00;96676.84;5113680;27;20353;-80
2023/09/09 01:34:25;;;;;;;0.00;0.00;;;;;;;16.21;100.00;96676.81;5114635;27;20050;-81
2023/09/09 01:37:11;;;;;;;0.00;0.00;;;;;;;16.15;100.00;96680.63;5115548;27;20500;-80
2023/09/09 01:39:57;;;;;;;0.00;0.00;;;;;;;15.99;100.00;96676.41;5115099;27;20039;-81
2023/09/09 01:42:47;;;;;;;0.00;0.00;;;;;;;16.08;100.00;96686.31;5096026;27;20039;-81
2023/09/09 01:45:33;;;;;;;0.10;0.00;;;;;;;16.04;100.00;96684.47;5112971;27;20104;-80
2023/09/09 01:48:19;;;;;;;0.00;0.00;;;;;;;16.08;100.00;96680.13;5093520;27;20038;-81
2023/09/09 01:51:06;;;;;;;0.08;0.00;;;;;;;16.05;100.00;96686.09;5113967;27;20135;-81
2023/09/09 01:53:51;;;;;;;0.00;0.00;;;;;;;15.98;100.00;96685.56;5114039;27;20604;-81
2023/09/09 01:56:37;;;;;;;0.00;0.00;;;;;;;16.01;100.00;96679.63;5093868;27;20059;-81
2023/09/09 01:59:23;;;;;;;0.00;0.00;;;;;;;15.93;100.00;96680.19;5098892;27;20509;-80
2023/09/09 02:02:09;;;;;;;0.00;0.00;;;;;;;15.97;100.00;96686.66;5110485;27;20484;-81
2023/09/09 02:04:55;;;;;;;0.10;0.10;;;;;;;15.96;100.00;96679.66;5113111;27;20058;-80
2023/09/09 02:07:41;;;;;;;0.00;0.00;;;;;;;15.92;100.00;96679.38;5111871;27;20059;-80
2023/09/09 02:10:26;;;;;;;0.10;0.10;;;;;;;15.90;100.00;96680.75;5113781;27;20122;-80
2023/09/09 02:13:12;;;;;;;0.00;0.00;;;;;;;15.85;100.00;96671.59;5099204;27;20074;-80
2023/09/09 02:16:06;;;;;;;0.00;0.00;;;;;;;15.81;100.00;96686.72;5100946;27;20035;-81
2023/09/09 02:18:52;;;;;;;0.00;0.00;;;;;;;15.82;100.00;96677.56;5113440;27;20046;-81
2023/09/09 02:21:38;;;;;;;0.05;0.05;;;;;;;15.75;100.00;96677.03;5100247;27;20065;-81
2023/09/09 02:24:24;;;;;;;0.00;0.00;;;;;;;15.70;100.00;96670.84;5114055;27;20040;-80
2023/09/09 02:27:10;;;;;;;0.10;0.10;;;;;;;15.75;100.00;96668.94;5113982;27;20489;-78
2023/09/09 02:29:57;;;;;;;0.03;0.03;;;;;;;15.82;100.00;96674.06;5114350;27;20064;-79
2023/09/09 02:32:44;;;;;;;0.00;0.00;;;;;;;15.82;100.00;96677.56;5100514;27;20058;-79
2023/09/09 02:35:30;;;;;;;0.08;0.08;;;;;;;15.83;100.00;96671.06;5110927;27;20043;-79
2023/09/09 02:38:16;;;;;;;0.00;0.00;;;;;;;15.85;100.00;96676.19;5108150;27;20039;-80
2023/09/09 02:41:02;;;;;;;0.00;0.00;;;;;;;15.80;100.00;96678.91;5100516;27;20039;-80
2023/09/09 02:43:48;;;;;;;0.00;0.00;;;;;;;15.80;100.00;96673.53;5098416;27;20248;-79
2023/09/09 02:46:41;;;;;;;0.08;0.08;;;;;;;15.79;100.00;96674.59;5100928;27;20042;-80
2023/09/09 02:49:27;;;;;;;0.10;0.10;;;;;;;15.66;100.00;96675.19;5114317;27;20564;-80
2023/09/09 02:52:15;;;;;;;0.00;0.00;;;;;;;15.64;100.00;96667.38;5111799;27;20589;-80
2023/09/09 02:55:01;;;;;;;0.08;0.08;;;;;;;15.71;100.00;96673.25;5092599;27;20207;-79
2023/09/09 02:57:51;;;;;;;0.00;0.00;;;;;;;15.80;100.00;96677.03;5102281;27;20043;-80
2023/09/09 03:00:37;;;;;;;0.03;0.00;;;;;;;15.81;100.00;96673.25;5094791;27;20062;-80
2023/09/09 03:03:23;;;;;;;0.00;0.00;;;;;;;15.71;100.00;96670.56;5110863;27;20550;-79
2023/09/09 03:06:10;;;;;;;0.00;0.00;;;;;;;15.78;100.00;96679.16;5093742;27;20686;-79
2023/09/09 03:08:56;;;;;;;0.00;0.00;;;;;;;15.78;100.00;96675.66;5096432;27;20456;-80
2023/09/09 03:11:42;;;;;;;0.05;0.05;;;;;;;15.76;100.00;96667.06;5094253;27;20047;-80
2023/09/09 03:14:28;;;;;;;0.00;0.00;;;;;;;15.76;100.00;96673.25;5112062;27;20044;-79
2023/09/09 03:17:16;;;;;;;0.10;0.10;;;;;;;15.73;100.00;96667.63;5095702;27;20501;-79
2023/09/09 03:20:05;;;;;;;0.05;0.05;;;;;;;15.74;100.00;96672.72;5083449;27;20043;-79
2023/09/09 03:22:51;;;;;;;0.00;0.00;;;;;;;15.66;100.00;96667.09;5096624;27;20101;-80
2023/09/09 03:25:37;;;;;;;0.00;0.00;;;;;;;15.54;100.00;96672.75;5098028;27;20492;-80
2023/09/09 03:28:22;;;;;;;0.00;0.00;;;;;;;15.42;100.00;96669.56;5095866;27;20052;-79
2023/09/09 03:31:08;;;;;;;0.10;0.10;;;;;;;15.41;100.00;96676.03;5097028;27;20529;-80
2023/09/09 03:33:54;;;;;;;0.00;0.00;;;;;;;15.40;100.00;96669.03;5081696;27;20051;-79
2023/09/09 03:36:42;;;;;;;0.10;0.10;;;;;;;15.44;100.00;96670.09;5110314;27;20035;-80
2023/09/09 03:39:28;;;;;;;0.00;0.00;;;;;;;15.43;100.00;96671.19;5096320;27;20047;-79
2023/09/09 03:42:14;;;;;;;0.10;0.10;;;;;;;15.31;100.00;96672.28;5099348;27;20043;-80
2023/09/09 03:45:00;;;;;;;0.10;0.10;;;;;;;15.23;100.00;96672.84;5094991;27;20200;-81
2023/09/09 03:47:46;;;;;;;0.00;0.00;;;;;;;15.17;100.00;96676.63;5093432;27;20871;-81
2023/09/09 03:50:33;;;;;;;0.00;0.00;;;;;;;15.24;100.00;96670.94;5109447;27;20420;-80
2023/09/09 03:53:19;;;;;;;0.00;0.00;;;;;;;15.29;100.00;96668.25;5091260;27;20092;-81
2023/09/09 03:56:05;;;;;;;0.00;0.00;;;;;;;15.21;100.00;96671.50;5082459;27;20084;-81
2023/09/09 03:58:51;;;;;;;0.08;0.08;;;;;;;15.17;100.00;96671.22;5108689;27;20039;-80
2023/09/09 04:01:39;;;;;;;0.00;0.00;;;;;;;15.21;100.00;96672.31;5097536;27;20047;-80
2023/09/09 04:04:25;;;;;;;0.00;0.00;;;;;;;15.26;100.00;96668.81;5097117;27;20039;-80
2023/09/09 04:07:11;;;;;;;0.00;0.00;;;;;;;15.20;100.00;96659.91;5099574;27;20317;-80
2023/09/09 04:09:57;;;;;;;0.00;0.00;;;;;;;15.23;100.00;96667.44;5112022;27;20481;-79
2023/09/09 04:12:45;;;;;;;0.00;0.00;;;;;;;15.28;100.00;96672.03;5095515;27;20039;-80
2023/09/09 04:15:31;;;;;;;0.05;0.05;;;;;;;15.07;100.00;96671.25;5105223;27;20498;-80
2023/09/09 04:18:17;;;;;;;0.03;0.03;;;;;;;15.12;100.00;96668.56;5112239;27;20161;-79
2023/09/09 04:21:03;;;;;;;0.00;0.00;;;;;;;15.19;100.00;96666.38;5100645;27;20078;-79
2023/09/09 04:23:49;;;;;;;0.00;0.00;;;;;;;15.27;100.00;96668.53;5097175;27;20050;-80
2023/09/09 04:26:36;;;;;;;0.00;0.00;;;;;;;15.22;100.00;96667.72;5099286;27;20048;-79
2023/09/09 04:29:22;;;;;;;0.10;0.10;;;;;;;15.21;100.00;96669.59;5108268;27;20039;-80
2023/09/09 04:32:07;;;;;;;0.00;0.00;;;;;;;15.13;100.00;96661.28;5110813;27;20050;-80
2023/09/09 04:34:53;;;;;;;0.00;0.00;;;;;;;15.07;100.00;96665.06;5087176;27;20046;-80
2023/09/09 04:37:39;;;;;;;0.00;0.00;;;;;;;15.08;100.00;96666.66;5097732;27;20061;-79
2023/09/09 04:40:26;;;;;;;0.00;0.00;;;;;;;15.03;100.00;96660.22;5114433;27;20071;-79
2023/09/09 04:43:11;;;;;;;0.00;0.00;;;;;;;15.10;100.00;96665.34;5093956;27;20046;-79
2023/09/09 04:45:57;;;;;;;0.10;0.10;;;;;;;15.09;100.00;96666.38;5098415;27;20043;-79
2023/09/09 04:48:43;;;;;;;0.00;0.00;;;;;;;15.09;100.00;96658.28;5099491;27;20462;-79
2023/09/09 04:51:31;;;;;;;0.00;0.00;;;;;;;15.04;100.00;96656.44;5078530;27;20047;-79
2023/09/09 04:54:18;;;;;;;0.00;0.00;;;;;;;14.92;100.00;96658.59;5093063;27;20586;-79
2023/09/09 04:57:04;;;;;;;0.00;0.00;;;;;;;14.88;100.00;96664.81;5098192;28;20405;-79
2023/09/09 04:59:50;;;;;;;0.00;0.00;;;;;;;14.89;100.00;96672.63;5112924;27;20852;-79
2023/09/09 05:02:38;;;;;;;0.00;0.00;;;;;;;14.89;100.00;96671.81;5097138;28;20039;-79
2023/09/09 05:05:24;;;;;;;0.00;0.00;;;;;;;14.80;100.00;96671.56;5096740;27;20509;-79
2023/09/09 05:08:10;;;;;;;0.00;0.00;;;;;;;14.81;100.00;96680.44;5098435;28;20047;-79
2023/09/09 05:10:56;;;;;;;0.00;0.00;;;;;;;14.88;100.00;96673.69;5111693;28;20363;-79
2023/09/09 05:13:42;;;;;;;0.10;0.10;;;;;;;14.84;100.00;96677.19;5110225;27;20043;-79
2023/09/09 05:16:29;;;;;;;0.03;0.03;;;;;;;14.75;100.00;96668.84;5095350;28;20541;-79
2023/09/09 05:19:15;;;;;;;0.10;0.10;;;;;;;14.75;100.00;96669.66;5095545;28;20526;-79
2023/09/09 05:22:01;;;;;;;0.00;0.00;;;;;;;14.87;100.00;96671.28;5096120;28;20043;-79
2023/09/09 05:24:47;;;;;;;0.10;0.10;;;;;;;15.00;100.00;96670.72;5108476;27;20027;-79
2023/09/09 05:27:33;;;;;;;0.00;0.00;;;;;;;14.96;100.00;96670.47;5097072;28;20042;-79
2023/09/09 05:30:19;;;;;;;0.00;0.00;;;;;;;15.07;100.00;96676.63;5112573;28;20701;-79
2023/09/09 05:33:05;;;;;;;0.00;0.00;;;;;;;15.14;100.00;96679.88;5109365;28;20043;-79
2023/09/09 05:35:51;;;;;;;0.00;0.00;;;;;;;15.24;100.00;96665.56;5098877;28;20112;-78
2023/09/09 05:38:37;;;;;;;0.00;0.00;;;;;;;15.34;100.00;96665.56;5111472;28;20151;-79
2023/09/09 05:41:24;;;;;;;0.00;0.00;;;;;;;15.42;100.00;96669.56;5096455;28;20054;-79
2023/09/09 05:44:09;;;;;;;0.10;0.10;;;;;;;15.43;100.00;96681.97;5091772;28;20069;-81
2023/09/09 05:46:55;;;;;;;0.08;0.08;;;;;;;15.54;100.00;96681.66;5096254;28;20513;-82
2023/09/09 05:49:41;;;;;;;0.00;0.00;;;;;;;15.69;100.00;96678.13;5089699;28;20032;-82
2023/09/09 05:52:29;;;;;;;0.00;0.00;;;;;;;15.81;100.00;96686.72;5095897;28;20484;-79
2023/09/09 05:55:15;;;;;;;0.00;0.00;;;;;;;15.82;100.00;96693.75;5095713;28;20050;-82
2023/09/09 05:58:01;;;;;;;0.10;0.10;;;;;;;15.80;100.00;96685.13;5111048;28;20453;-81
2023/09/09 06:00:47;;;;;;;0.00;0.00;;;;;;;15.84;100.00;96686.16;5090959;28;20043;-81
2023/09/09 06:03:35;;;;;;;0.05;0.05;;;;;;;15.92;100.00;96692.88;5111739;28;20039;-82
2023/09/09 06:06:22;;;;;;;0.00;0.00;;;;;;;16.04;100.00;96697.97;5092981;28;20429;-81
2023/09/09 06:09:08;;;;;;;0.10;0.10;;;;;;;16.21;100.00;96698.41;5109856;28;20503;-80
2023/09/09 06:11:54;;;;;;;0.10;0.10;;;;;;;16.41;100.00;96694.78;5098467;28;20150;-80
2023/09/09 06:14:40;;;;;;;0.00;0.00;;;;;;;16.47;100.00;96699.06;5089401;28;20047;-79
2023/09/09 06:17:26;;;;;;;0.10;0.10;;;;;;;16.52;100.00;96706.34;5110785;27;20065;-80
2023/09/09 06:20:14;;;;;;;0.00;0.00;;;;;;;16.64;100.00;96706.78;5108688;27;20046;-81
2023/09/09 06:23:00;;;;;;;0.00;0.00;;;;;;;16.75;100.00;96716.47;5099900;27;20057;-82
2023/09/09 06:25:49;;;;;;;0.00;0.00;;;;;;;16.89;100.00;96708.53;5113277;27;20040;-79
2023/09/09 06:28:35;;;;;;;0.10;0.10;;;;;;;17.01;100.00;96708.16;5113371;27;20054;-79
2023/09/09 06:31:21;;;;;;;0.00;0.00;;;;;;;17.14;100.00;96707.53;5113319;27;20039;-82
2023/09/09 06:34:10;;;;;;;0.10;0.10;;;;;;;17.33;100.00;96705.69;5099621;27;20039;-80
2023/09/09 06:36:56;;;;;;;0.08;0.08;;;;;;;17.51;100.00;96715.81;5094489;27;20486;-79
2023/09/09 06:39:42;;;;;;;0.00;0.00;;;;;;;17.64;100.00;96716.22;5113990;27;20062;-82
2023/09/09 06:42:28;;;;;;;0.10;0.10;;;;;;;17.74;100.00;96716.13;5113462;27;20107;-81
2023/09/09 06:45:18;;;;;;;0.10;0.10;;;;;;;17.86;100.00;96710.31;5094114;27;20036;-80
2023/09/09 06:48:04;;;;;;;0.00;0.00;;;;;;;17.96;100.00;96713.69;5113816;27;20039;-82
2023/09/09 06:50:50;;;;;;;0.10;0.10;;;;;;;18.07;100.00;96715.22;5114006;27;20047;-80
2023/09/09 06:53:36;;;;;;;0.00;0.00;;;;;;;18.16;100.00;96717.28;5112951;27;20479;-81
2023/09/09 06:56:21;;;;;;;0.00;0.00;;;;;;;18.31;100.00;96726.00;5102205;27;20451;-82
2023/09/09 06:59:07;;;;;;;0.10;0.10;;;;;;;18.39;100.00;96729.97;5112739;27;20129;-82
2023/09/09 07:01:53;;;;;;;0.00;0.00;;;;;;;18.50;100.00;96733.31;5113921;27;20517;-83
2023/09/09 07:04:39;;;;;;;0.00;0.00;;;;;;;18.61;100.00;96727.47;5098057;27;20054;-82
2023/09/09 07:07:25;;;;;;;0.00;0.00;;;;;;;18.72;100.00;96727.34;5114022;27;20281;-83
2023/09/09 07:10:12;;;;;;;0.00;0.00;;;;;;;18.81;100.00;96728.31;5115159;27;20059;-81
2023/09/09 07:12:58;;;;;;;0.10;0.10;;;;;;;18.87;100.00;96732.56;5113110;27;20039;-81
2023/09/09 07:15:44;;;;;;;0.00;0.00;;;;;;;18.93;100.00;96737.59;5115947;27;20308;-84
2023/09/09 07:18:30;;;;;;;0.10;0.10;;;;;;;19.07;100.00;96739.56;5114130;27;20576;-83
2023/09/09 07:21:15;;;;;;;0.00;0.00;;;;;;;19.10;100.00;96737.06;5114776;27;20466;-82
2023/09/09 07:24:01;;;;;;;0.00;0.00;;;;;;;19.23;100.00;96737.41;5112345;27;20038;-82
2023/09/09 07:26:48;;;;;;;0.00;0.00;;;;;;;19.28;100.00;96734.59;5111981;27;20041;-83
2023/09/09 07:29:34;;;;;;;0.05;0.05;;;;;;;19.43;100.00;96734.34;5090680;27;20130;-82
2023/09/09 07:32:19;;;;;;;0.00;0.00;;;;;;;19.55;100.00;96739.28;5110781;27;20050;-81
2023/09/09 07:35:06;;;;;;;0.10;0.10;;;;;;;19.68;100.00;96731.19;5113809;27;20646;-81
2023/09/09 07:37:51;;;;;;;0.00;0.00;;;;;;;19.75;100.00;96739.75;5111794;27;20040;-82
2023/09/09 07:40:37;;;;;;;0.00;0.00;;;;;;;19.90;100.00;96738.66;5112416;27;20496;-83
2023/09/09 07:43:24;;;;;;;0.10;0.10;;;;;;;20.02;100.00;96738.97;5116423;27;20039;-83
2023/09/09 07:46:10;;;;;;;0.00;0.00;;;;;;;20.15;100.00;96740.03;5131169;27;20043;-80
2023/09/09 07:48:55;;;;;;;0.00;0.00;;;;;;;20.27;100.00;96748.50;5135531;27;20047;-81
2023/09/09 07:51:41;;;;;;;0.00;0.00;;;;;;;20.34;100.00;96741.84;5119661;27;20462;-81
2023/09/09 07:54:27;;;;;;;0.00;0.00;;;;;;;20.46;100.00;96739.44;5114075;27;20644;-82
2023/09/09 07:57:13;;;;;;;0.10;0.10;;;;;;;20.52;100.00;96743.66;5097829;27;20077;-81
2023/09/09 08:00:00;;;;;;;0.00;0.00;;;;;;;20.58;100.00;96737.00;5110996;27;20036;-82
2023/09/09 08:02:46;;;;;;;0.00;0.00;;;;;;;20.70;100.00;96742.72;5110426;27;20039;-84
2023/09/09 08:05:32;;;;;;;0.00;0.00;;;;;;;20.77;100.00;96748.53;5112980;27;20063;-79
2023/09/09 08:08:18;;;;;;;0.00;0.00;;;;;;;20.90;100.00;96749.59;5113407;27;20714;-79
2023/09/09 08:11:04;;;;;;;0.03;0.03;;;;;;;21.04;100.00;96744.91;5115162;27;20071;-80
2023/09/09 08:13:50;;;;;;;0.08;0.08;;;;;;;21.14;100.00;96741.94;5113033;27;20120;-78
2023/09/09 08:16:40;;;;;;;0.10;0.10;;;;;;;21.23;100.00;96752.09;5113668;27;20614;-81
2023/09/09 08:19:26;;;;;;;0.00;0.00;;;;;;;21.37;100.00;96745.50;5111645;27;20118;-81
2023/09/09 08:22:12;;;;;;;0.00;0.00;;;;;;;21.49;100.00;96746.84;5112929;27;20043;-83
2023/09/09 08:24:57;;;;;;;0.00;0.00;;;;;;;21.63;100.00;96739.38;5111994;27;20043;-83
2023/09/09 08:27:43;;;;;;;0.00;0.00;;;;;;;21.72;100.00;96748.44;5112053;27;20573;-82
2023/09/09 08:30:30;;;;;;;0.10;0.10;;;;;;;21.79;100.00;96746.06;5110044;27;20474;-81
2023/09/09 08:33:16;;;;;;;0.05;0.05;;;;;;;21.92;100.00;96742.41;5112746;27;20047;-81
2023/09/09 08:36:05;;;;;;;0.08;0.08;;;;;;;22.03;100.00;96748.41;5109915;27;20331;-82
2023/09/09 08:38:56;;;;;;;0.00;0.00;;;;;;;22.14;100.00;96748.94;5113180;27;20054;-83
2023/09/09 08:41:53;;;;;;;;;;;;;;;22.25;100.00;96747.53;5112345;27;20131;-82
2023/09/09 08:44:48;;;;;;;0.10;0.10;;;;;;;22.41;100.00;96742.44;5111339;27;19954;-83
2023/09/09 08:47:36;;;;;;;0.10;0.10;;;;;;;22.53;100.00;96748.88;5111790;27;20216;-80
2023/09/09 08:50:24;;;;;;;0.10;0.10;;;;;;;22.62;100.00;96742.63;5111758;27;20117;-83
2023/09/09 08:53:13;;;;;;;0.00;0.00;;;;;;;22.82;100.00;96746.69;5091236;27;20031;-84
2023/09/09 08:56:00;;;;;;;0.00;0.00;;;;;;;22.97;100.00;96749.75;5109349;27;20058;-81
2023/09/09 08:58:46;;;;;;;0.10;0.10;;;;;;;22.99;100.00;96746.72;5086661;28;20138;-83
2023/09/09 09:01:33;;;;;;;0.10;0.10;;;;;;;23.16;100.00;96749.41;5111246;27;20342;-83
2023/09/09 09:04:21;;;;;;;0.00;0.00;;;;;;;23.26;100.00;96746.34;5095715;27;20042;-82
2023/09/09 09:07:07;;;;;;;0.00;0.00;;;;;;;23.31;100.00;96756.31;5111786;28;20186;-81
2023/09/09 09:09:54;;;;;;;0.05;0.05;;;;;;;23.58;100.00;96750.50;5111765;28;20390;-83
2023/09/09 09:12:40;;;;;;;0.10;0.10;;;;;;;23.66;100.00;96757.09;5111980;28;20740;-83
2023/09/09 09:15:31;;;;;;;0.00;0.00;;;;;;;23.79;100.00;96752.53;5112326;28;20263;-82
2023/09/09 09:18:17;;;;;;;0.03;0.03;;;;;;;23.94;100.00;96759.41;5111520;28;20036;-84
2023/09/09 09:21:08;;;;;;;0.00;0.00;;;;;;;24.00;100.00;96747.97;5111319;28;20043;-84
2023/09/09 09:23:53;;;;;;;0.00;0.00;;;;;;;24.19;100.00;96759.28;5114295;28;20035;-82
2023/09/09 09:26:39;;;;;;;0.08;0.08;;;;;;;24.18;100.00;96756.88;5111009;28;20043;-83
2023/09/09 09:29:38;;;;;;;0.03;0.03;;;;;;;24.30;100.00;96742.53;5110526;28;20039;-83
2023/09/09 09:32:39;;;;;;;0.00;0.00;;;;;;;24.49;100.00;96753.06;5111813;28;20039;-83
2023/09/09 09:35:27;;;;;;;0.00;0.00;;;;;;;24.61;100.00;96753.97;5109495;28;20067;-81
2023/09/09 09:38:14;;;;;;;0.00;0.00;;;;;;;24.74;100.00;96760.28;5110943;28;20069;-82
2023/09/09 09:41:00;;;;;;;0.00;0.00;;;;;;;24.79;100.00;96751.09;5112281;27;20085;-81
2023/09/09 09:43:47;;;;;;;0.00;0.00;;;;;;;25.00;100.00;96752.72;5110740;28;20055;-84
2023/09/09 09:46:33;;;;;;;0.00;0.00;;;;;;;24.92;100.00;96745.38;5108432;28;20035;-82
2023/09/09 09:49:19;;;;;;;0.03;0.03;;;;;;;25.04;100.00;96752.84;5110929;28;20035;-82
2023/09/09 09:52:06;;;;;;;0.10;0.10;;;;;;;25.37;100.00;96749.34;5113484;27;20245;-81
2023/09/09 09:54:53;;;;;;;0.00;0.00;;;;;;;25.64;100.00;96751.50;5115281;27;20046;-84
2023/09/09 09:57:39;;;;;;;0.03;0.03;;;;;;;25.66;100.00;96740.19;5114835;27;20076;-84
2023/09/09 10:00:26;;;;;;;0.00;0.00;;;;;;;25.96;100.00;96744.38;5114646;27;20550;-83
2023/09/09 10:03:14;;;;;;;0.08;0.08;;;;;;;26.06;100.00;96737.66;5115163;27;20924;-82
2023/09/09 10:06:01;;;;;;;0.00;0.00;;;;;;;26.03;100.00;96743.81;5116455;27;20050;-81
2023/09/09 10:09:13;;;;;;;0.05;0.05;;;;;;;26.31;100.00;96738.47;5110961;27;20044;-83
2023/09/09 10:12:07;;;;;;;0.00;0.00;;;;;;;26.37;100.00;96746.09;5114908;27;20744;-82
2023/09/09 10:14:54;;;;;;;0.10;0.10;;;;;;;26.41;100.00;96742.72;5115536;27;20040;-83
2023/09/09 10:17:42;;;;;;;0.08;0.08;;;;;;;26.49;99.21;96739.84;5114539;27;20050;-83
2023/09/09 10:20:29;;;;;;;0.00;0.00;;;;;;;26.92;100.00;96746.63;5115750;27;20047;-83
2023/09/09 10:23:17;;;;;;;0.00;0.00;;;;;;;27.17;100.00;96739.97;5114066;27;20042;-82
2023/09/09 10:26:04;;;;;;;0.03;0.03;;;;;;;27.47;98.91;96745.91;5115558;27;20042;-82
2023/09/09 10:28:51;;;;;;;0.10;0.10;;;;;;;27.66;98.98;96742.47;5099374;27;20054;-83
2023/09/09 10:31:41;;;;;;;0.10;0.10;;;;;;;28.43;96.09;96742.09;5108992;27;20051;-81
2023/09/09 10:34:28;;;;;;;0.10;0.10;;;;;;;29.44;94.60;96743.13;5100496;27;20035;-83
2023/09/09 10:37:18;;;;;;;0.10;0.10;;;;;;;30.98;83.83;96732.72;5067572;27;20043;-83
2023/09/09 10:40:08;;;;;;;0.10;0.10;;;;;;;31.80;78.00;96734.50;5116103;27;20051;-83
2023/09/09 10:42:54;;;;;;;0.10;0.10;;;;;;;33.31;64.15;96731.63;5112429;27;20038;-82
2023/09/09 10:45:42;;;;;;;0.10;0.10;;;;;;;33.50;59.50;96738.84;5114190;27;20053;-83
2023/09/09 10:48:29;;;;;;;0.10;0.10;;;;;;;35.68;53.89;96728.34;5113893;27;20040;-83
2023/09/09 10:51:16;;;;;;;0.10;0.10;;;;;;;38.39;36.27;96734.59;5117576;27;20043;-81
2023/09/09 10:54:11;;;;;;;0.10;0.10;;;;;;;37.85;37.14;96726.25;5120513;27;20630;-81
2023/09/09 10:57:02;;;;;;;0.10;0.10;;;;;;;38.00;38.01;96734.41;5113200;27;21521;-81
2023/09/09 10:59:48;;;;;;;;;;;;;;;40.58;32.71;96729.66;5115312;27;20046;-81
2023/09/09 11:02:47;;;;;;;0.10;0.10;;;;;;;40.31;29.87;96731.91;5110196;27;20361;-83
2023/09/09 11:05:57;;;;;;;0.13;0.13;;;;;;;38.44;32.27;96745.28;5115785;27;20076;-81
2023/09/09 11:08:46;;;;;;;0.10;0.10;;;;;;;40.97;29.70;96729.88;5111703;27;20440;-83
2023/09/09 11:11:35;;;;;;;0.10;0.10;;;;;;;41.94;28.50;96731.47;5115049;27;20605;-83
2023/09/09 11:14:20;;;;;;;0.10;0.10;;;;;;;43.87;26.05;96731.97;5111919;27;20055;-82
2023/09/09 11:17:09;;;;;;;0.10;0.10;;;;;;;44.54;24.40;96732.53;5114067;27;20478;-82
2023/09/09 11:19:55;;;;;;;0.00;0.00;;;;;;;44.24;23.77;96726.50;5112135;27;20046;-82
2023/09/09 11:22:42;;;;;;;0.10;0.10;;;;;;;45.38;25.24;96732.94;5111432;27;20051;-81
2023/09/09 11:25:29;;;;;;;0.10;0.10;;;;;;;46.38;22.56;96731.00;5074988;27;20301;-83
2023/09/09 11:28:14;;;;;;;0.10;0.10;;;;;;;46.08;22.39;96730.88;5110857;27;20111;-81
2023/09/09 11:31:01;;;;;;;0.10;0.10;;;;;;;47.31;21.59;96731.94;5110427;27;20027;-81
2023/09/09 11:33:46;;;;;;;0.10;0.10;;;;;;;47.44;20.93;96732.44;5109218;27;20043;-82
2023/09/09 11:36:32;;;;;;;0.00;0.00;;;;;;;48.14;20.53;96738.28;5112113;27;20063;-82
2023/09/09 11:39:18;;;;;;;0.10;0.10;;;;;;;48.64;19.97;96735.41;5109091;27;20031;-83
2023/09/09 11:42:04;;;;;;;0.10;0.10;;;;;;;48.82;19.29;96729.47;5107376;27;20031;-81
2023/09/09 11:44:50;;;;;;;0.10;0.10;;;;;;;49.22;17.99;96725.06;5111726;27;20407;-81
2023/09/09 11:47:36;;;;;;;0.10;0.10;;;;;;;49.82;17.67;96731.88;5108939;27;20039;-83
2023/09/09 11:50:22;;;;;;;0.10;0.10;;;;;;;47.97;20.55;96728.75;5109221;27;20036;-81
2023/09/09 11:53:09;;;;;;;0.10;0.10;;;;;;;48.51;19.51;96735.00;5111280;27;20258;-81
2023/09/09 11:55:56;;;;;;;0.10;0.10;;;;;;;50.66;18.26;96731.66;5110447;27;20043;-82
2023/09/09 11:58:42;;;;;;;0.17;0.17;;;;;;;50.14;19.05;96729.03;5107962;27;20073;-81
2023/09/09 12:01:28;;;;;;;0.17;0.17;;;;;;;49.00;18.90;96721.94;5111597;27;20050;-83
2023/09/09 12:04:14;;;;;;;0.10;0.10;;;;;;;49.19;18.95;96725.25;5090578;27;20050;-81
2023/09/09 12:07:00;;;;;;;0.05;0.05;;;;;;;49.64;17.78;96720.81;5108103;27;20887;-82
2023/09/09 12:09:46;;;;;;;0.10;0.10;;;;;;;49.83;18.00;96718.44;5111101;27;20047;-82
2023/09/09 12:12:33;;;;;;;0.10;0.10;;;;;;;45.66;20.90;96719.50;5086706;27;20437;-83
2023/09/09 12:15:19;;;;;;;0.00;0.00;;;;;;;41.74;26.20;96724.06;5091069;27;20107;-82
2023/09/09 12:18:12;;;;;;;0.00;0.00;;;;;;;39.23;30.20;96721.53;5106728;27;20051;-82
2023/09/09 12:21:01;;;;;;;0.10;0.10;;;;;;;42.83;24.78;96722.94;5092030;27;21722;-82
2023/09/09 12:23:47;;;;;;;0.10;0.10;;;;;;;45.53;22.55;96725.38;5077423;27;20090;-83
2023/09/09 12:26:33;;;;;;;0.10;0.10;;;;;;;48.12;19.75;96723.84;5110294;27;20496;-81
2023/09/09 12:29:19;;;;;;;0.10;0.10;;;;;;;48.76;18.67;96719.34;5110156;27;20051;-83
2023/09/09 12:32:05;;;;;;;0.10;0.10;;;;;;;49.35;18.73;96730.34;5107641;27;20430;-82
2023/09/09 12:34:51;;;;;;;0.10;0.10;;;;;;;49.72;17.67;96726.84;5108331;27;20058;-82
2023/09/09 12:37:37;;;;;;;0.10;0.10;;;;;;;50.32;16.37;96728.59;5087450;27;20050;-82
2023/09/09 12:40:22;;;;;;;0.10;0.10;;;;;;;50.13;15.69;96731.09;5111886;27;20583;-82
2023/09/09 12:43:09;;;;;;;0.10;0.10;;;;;;;50.42;16.64;96729.97;5106271;27;20043;-82
2023/09/09 12:46:02;;;;;;;0.10;0.10;;;;;;;48.48;18.13;96730.28;5108545;27;20045;-82
2023/09/09 12:49:02;;;;;;;0.10;0.10;;;;;;;49.86;15.79;96738.09;5105851;27;20378;-82
2023/09/09 12:51:48;;;;;;;0.10;0.10;;;;;;;49.15;16.56;96733.22;5112154;27;20079;-81
2023/09/09 12:54:34;;;;;;;0.10;0.10;;;;;;;49.92;15.97;96733.22;5111085;27;20059;-82
2023/09/09 12:57:20;;;;;;;0.10;0.10;;;;;;;50.41;15.78;96721.97;5109619;27;20867;-83
2023/09/09 13:00:08;;;;;;;0.20;0.20;;;;;;;50.73;15.45;96726.25;5104270;27;20493;-84